sensor_id;sensor_type;location;lat;lon;timestamp;pressure;altitude;pressure_sealevel;temperature;humidity
50105;BME280;47690;39.202;-77.198;2023-04-08T00:01:05;101289.88;;;36.86;6.69
50105;BME280;47690;39.202;-77.198;2023-04-08T00:03:37;101297.63;;;36.81;6.82
50105;BME280;47690;39.202;-77.198;2023-04-08T00:06:18;101289.44;;;37.22;6.90
50105;BME280;47690;39.202;-77.198;2023-04-08T00:09:24;101294.03;;;36.97;7.04
50105;BME280;47690;39.202;-77.198;2023-04-08T00:12:05;101293.22;;;36.80;6.64
50105;BME280;47690;39.202;-77.198;2023-04-08T00:14:42;101294.13;;;36.72;6.75
50105;BME280;47690;39.202;-77.198;2023-04-08T00:17:17;101285.06;;;36.65;6.49
50105;BME280;47690;39.202;-77.198;2023-04-08T00:19:49;101297.13;;;36.60;7.11
50105;BME280;47690;39.202;-77.198;2023-04-08T00:22:22;101305.81;;;39.21;5.70
50105;BME280;47690;39.202;-77.198;2023-04-08T00:25:05;101318.56;;;37.97;6.16
50105;BME280;47690;39.202;-77.198;2023-04-08T00:27:39;101308.84;;;36.76;6.92
50105;BME280;47690;39.202;-77.198;2023-04-08T00:30:14;101303.00;;;36.56;7.10
50105;BME280;47690;39.202;-77.198;2023-04-08T00:32:49;101316.84;;;37.81;6.48
50105;BME280;47690;39.202;-77.198;2023-04-08T00:35:20;101326.69;;;37.89;6.08
50105;BME280;47690;39.202;-77.198;2023-04-08T00:37:53;101327.34;;;36.54;6.75
50105;BME280;47690;39.202;-77.198;2023-04-08T00:40:33;101344.06;;;36.81;7.21
50105;BME280;47690;39.202;-77.198;2023-04-08T00:43:17;101347.81;;;36.63;6.90
50105;BME280;47690;39.202;-77.198;2023-04-08T00:45:53;101348.44;;;36.24;7.31
50105;BME280;47690;39.202;-77.198;2023-04-08T00:48:33;101360.88;;;36.42;7.24
50105;BME280;47690;39.202;-77.198;2023-04-08T00:51:07;101355.47;;;36.08;7.44
50105;BME280;47690;39.202;-77.198;2023-04-08T00:53:42;101365.53;;;36.31;7.18
50105;BME280;47690;39.202;-77.198;2023-04-08T00:56:12;101364.72;;;36.31;7.18
50105;BME280;47690;39.202;-77.198;2023-04-08T00:58:46;101369.06;;;36.32;7.59
50105;BME280;47690;39.202;-77.198;2023-04-08T01:01:39;101362.69;;;36.33;7.43
50105;BME280;47690;39.202;-77.198;2023-04-08T01:07:17;101371.91;;;36.30;7.49
50105;BME280;47690;39.202;-77.198;2023-04-08T01:09:52;101372.09;;;36.29;7.52
50105;BME280;47690;39.202;-77.198;2023-04-08T01:12:29;101366.88;;;36.19;7.64
50105;BME280;47690;39.202;-77.198;2023-04-08T01:15:06;101372.50;;;35.82;7.76
50105;BME280;47690;39.202;-77.198;2023-04-08T01:17:38;101383.19;;;35.74;7.55
50105;BME280;47690;39.202;-77.198;2023-04-08T01:20:13;101383.09;;;36.01;7.78
50105;BME280;47690;39.202;-77.198;2023-04-08T01:25:55;101383.63;;;36.13;7.96
50105;BME280;47690;39.202;-77.198;2023-04-08T01:28:30;101380.06;;;36.04;7.53
50105;BME280;47690;39.202;-77.198;2023-04-08T01:31:02;101384.59;;;36.03;7.81
50105;BME280;47690;39.202;-77.198;2023-04-08T01:33:34;101392.97;;;36.00;7.80
50105;BME280;47690;39.202;-77.198;2023-04-08T01:36:08;101397.16;;;35.94;7.59
50105;BME280;47690;39.202;-77.198;2023-04-08T01:38:40;101399.66;;;35.96;7.89
50105;BME280;47690;39.202;-77.198;2023-04-08T01:41:16;101396.31;;;36.02;7.94
50105;BME280;47690;39.202;-77.198;2023-04-08T01:43:48;101394.31;;;36.04;7.85
50105;BME280;47690;39.202;-77.198;2023-04-08T01:46:20;101399.22;;;36.09;7.57
50105;BME280;47690;39.202;-77.198;2023-04-08T01:48:53;101404.59;;;36.09;7.68
50105;BME280;47690;39.202;-77.198;2023-04-08T01:51:22;101402.19;;;36.06;7.54
50105;BME280;47690;39.202;-77.198;2023-04-08T01:53:56;101413.59;;;36.08;7.93
50105;BME280;47690;39.202;-77.198;2023-04-08T01:56:33;101403.94;;;36.15;7.76
50105;BME280;47690;39.202;-77.198;2023-04-08T01:59:10;101406.09;;;36.12;7.79
50105;BME280;47690;39.202;-77.198;2023-04-08T02:01:44;101400.50;;;36.05;8.09
50105;BME280;47690;39.202;-77.198;2023-04-08T02:04:16;101398.38;;;36.08;7.93
50105;BME280;47690;39.202;-77.198;2023-04-08T02:06:46;101402.41;;;36.21;7.60
50105;BME280;47690;39.202;-77.198;2023-04-08T02:09:16;101406.19;;;35.93;7.68
50105;BME280;47690;39.202;-77.198;2023-04-08T02:11:48;101410.69;;;35.93;7.84
50105;BME280;47690;39.202;-77.198;2023-04-08T02:14:18;101415.69;;;35.79;7.77
50105;BME280;47690;39.202;-77.198;2023-04-08T02:17:25;101408.34;;;35.90;7.89
50105;BME280;47690;39.202;-77.198;2023-04-08T02:20:06;101410.19;;;35.98;7.87
50105;BME280;47690;39.202;-77.198;2023-04-08T02:25:14;101413.63;;;35.65;8.11
50105;BME280;47690;39.202;-77.198;2023-04-08T02:27:46;101408.31;;;35.47;7.82
50105;BME280;47690;39.202;-77.198;2023-04-08T02:30:21;101416.16;;;35.40;8.16
50105;BME280;47690;39.202;-77.198;2023-04-08T02:32:56;101418.69;;;35.41;8.29
50105;BME280;47690;39.202;-77.198;2023-04-08T02:35:30;101411.66;;;35.40;8.47
50105;BME280;47690;39.202;-77.198;2023-04-08T02:38:02;101419.75;;;35.57;8.16
50105;BME280;47690;39.202;-77.198;2023-04-08T02:40:32;101417.09;;;35.57;8.08
50105;BME280;47690;39.202;-77.198;2023-04-08T02:43:04;101419.19;;;35.72;7.95
50105;BME280;47690;39.202;-77.198;2023-04-08T02:45:42;101411.69;;;35.84;8.37
50105;BME280;47690;39.202;-77.198;2023-04-08T02:48:14;101402.59;;;35.68;8.01
50105;BME280;47690;39.202;-77.198;2023-04-08T02:50:45;101395.59;;;35.75;8.04
50105;BME280;47690;39.202;-77.198;2023-04-08T02:53:15;101394.53;;;35.60;8.28
50105;BME280;47690;39.202;-77.198;2023-04-08T02:55:46;101395.56;;;35.67;8.14
50105;BME280;47690;39.202;-77.198;2023-04-08T02:58:16;101395.88;;;35.64;8.37
50105;BME280;47690;39.202;-77.198;2023-04-08T03:00:46;101389.88;;;35.78;8.02
50105;BME280;47690;39.202;-77.198;2023-04-08T03:03:17;101388.75;;;35.89;7.94
50105;BME280;47690;39.202;-77.198;2023-04-08T03:05:48;101389.09;;;35.86;8.04
50105;BME280;47690;39.202;-77.198;2023-04-08T03:08:20;101395.59;;;35.84;8.01
50105;BME280;47690;39.202;-77.198;2023-04-08T03:10:50;101388.69;;;35.73;8.43
50105;BME280;47690;39.202;-77.198;2023-04-08T03:13:20;101398.25;;;35.67;8.37
50105;BME280;47690;39.202;-77.198;2023-04-08T03:15:50;101400.03;;;35.58;8.21
50105;BME280;47690;39.202;-77.198;2023-04-08T03:18:20;101398.47;;;35.55;8.42
50105;BME280;47690;39.202;-77.198;2023-04-08T03:20:50;101407.16;;;35.49;8.36
50105;BME280;47690;39.202;-77.198;2023-04-08T03:23:21;101404.97;;;35.45;8.37
50105;BME280;47690;39.202;-77.198;2023-04-08T03:25:50;101398.94;;;35.42;8.51
50105;BME280;47690;39.202;-77.198;2023-04-08T03:28:20;101401.09;;;35.39;8.38
50105;BME280;47690;39.202;-77.198;2023-04-08T03:30:50;101398.25;;;35.40;8.50
50105;BME280;47690;39.202;-77.198;2023-04-08T03:33:20;101401.06;;;35.31;8.56
50105;BME280;47690;39.202;-77.198;2023-04-08T03:35:49;101396.53;;;35.31;8.60
50105;BME280;47690;39.202;-77.198;2023-04-08T03:38:20;101396.84;;;35.28;8.50
50105;BME280;47690;39.202;-77.198;2023-04-08T03:40:50;101402.84;;;35.22;8.58
50105;BME280;47690;39.202;-77.198;2023-04-08T03:43:21;101399.06;;;35.33;8.46
50105;BME280;47690;39.202;-77.198;2023-04-08T03:45:50;101399.31;;;35.48;8.49
50105;BME280;47690;39.202;-77.198;2023-04-08T03:48:22;101390.22;;;35.40;8.78
50105;BME280;47690;39.202;-77.198;2023-04-08T03:50:53;101389.31;;;35.23;8.78
50105;BME280;47690;39.202;-77.198;2023-04-08T03:53:22;101386.06;;;35.11;8.79
50105;BME280;47690;39.202;-77.198;2023-04-08T03:55:50;101386.66;;;35.05;8.79
50105;BME280;47690;39.202;-77.198;2023-04-08T03:58:22;101382.44;;;35.03;8.82
50105;BME280;47690;39.202;-77.198;2023-04-08T04:00:52;101386.94;;;35.02;9.00
50105;BME280;47690;39.202;-77.198;2023-04-08T04:03:22;101385.13;;;35.03;8.84
50105;BME280;47690;39.202;-77.198;2023-04-08T04:05:57;101381.06;;;34.98;8.87
50105;BME280;47690;39.202;-77.198;2023-04-08T04:08:30;101392.03;;;36.18;8.41
50105;BME280;47690;39.202;-77.198;2023-04-08T04:11:02;101388.97;;;35.26;8.45
50105;BME280;47690;39.202;-77.198;2023-04-08T04:13:33;101401.81;;;34.96;8.74
50105;BME280;47690;39.202;-77.198;2023-04-08T04:16:07;101386.59;;;34.97;8.60
50105;BME280;47690;39.202;-77.198;2023-04-08T04:18:41;101384.44;;;35.00;8.90
50105;BME280;47690;39.202;-77.198;2023-04-08T04:21:13;101386.16;;;36.31;8.18
50105;BME280;47690;39.202;-77.198;2023-04-08T04:23:43;101382.00;;;36.61;7.81
50105;BME280;47690;39.202;-77.198;2023-04-08T04:26:15;101385.91;;;35.48;8.65
50105;BME280;47690;39.202;-77.198;2023-04-08T04:28:46;101382.13;;;35.59;8.54
50105;BME280;47690;39.202;-77.198;2023-04-08T04:31:22;101384.22;;;35.47;8.92
50105;BME280;47690;39.202;-77.198;2023-04-08T04:33:56;101383.06;;;35.92;8.41
50105;BME280;47690;39.202;-77.198;2023-04-08T04:36:30;101379.13;;;36.38;8.32
50105;BME280;47690;39.202;-77.198;2023-04-08T04:39:02;101383.41;;;35.98;8.25
50105;BME280;47690;39.202;-77.198;2023-04-08T04:41:33;101370.47;;;35.85;8.85
50105;BME280;47690;39.202;-77.198;2023-04-08T04:44:10;101376.84;;;35.40;8.68
50105;BME280;47690;39.202;-77.198;2023-04-08T04:46:45;101377.97;;;35.30;8.78
50105;BME280;47690;39.202;-77.198;2023-04-08T04:49:14;101375.72;;;34.72;8.93
50105;BME280;47690;39.202;-77.198;2023-04-08T04:51:48;101383.78;;;34.80;8.89
50105;BME280;47690;39.202;-77.198;2023-04-08T04:54:20;101397.66;;;34.57;9.12
50105;BME280;47690;39.202;-77.198;2023-04-08T04:56:50;101394.28;;;34.73;9.17
50105;BME280;47690;39.202;-77.198;2023-04-08T04:59:21;101397.56;;;34.85;9.09
50105;BME280;47690;39.202;-77.198;2023-04-08T05:01:56;101396.84;;;35.01;8.95
50105;BME280;47690;39.202;-77.198;2023-04-08T05:04:31;101408.66;;;35.17;8.87
50105;BME280;47690;39.202;-77.198;2023-04-08T05:07:02;101407.81;;;35.17;8.85
50105;BME280;47690;39.202;-77.198;2023-04-08T05:09:32;101417.19;;;35.47;8.77
50105;BME280;47690;39.202;-77.198;2023-04-08T05:12:02;101427.53;;;34.71;9.11
50105;BME280;47690;39.202;-77.198;2023-04-08T05:14:36;101440.13;;;34.97;9.03
50105;BME280;47690;39.202;-77.198;2023-04-08T05:17:08;101454.34;;;34.97;8.80
50105;BME280;47690;39.202;-77.198;2023-04-08T05:19:39;101448.84;;;35.17;8.73
50105;BME280;47690;39.202;-77.198;2023-04-08T05:22:10;101464.47;;;34.85;8.57
50105;BME280;47690;39.202;-77.198;2023-04-08T05:24:44;101463.16;;;34.53;8.96
50105;BME280;47690;39.202;-77.198;2023-04-08T05:27:14;101463.28;;;34.52;9.06
50105;BME280;47690;39.202;-77.198;2023-04-08T05:29:44;101465.22;;;34.41;9.06
50105;BME280;47690;39.202;-77.198;2023-04-08T05:32:17;101463.03;;;34.55;9.20
50105;BME280;47690;39.202;-77.198;2023-04-08T05:34:48;101461.25;;;34.17;9.48
50105;BME280;47690;39.202;-77.198;2023-04-08T05:37:19;101454.09;;;34.18;9.48
50105;BME280;47690;39.202;-77.198;2023-04-08T05:39:50;101451.44;;;34.36;9.47
50105;BME280;47690;39.202;-77.198;2023-04-08T05:42:20;101443.56;;;34.35;9.27
50105;BME280;47690;39.202;-77.198;2023-04-08T05:44:51;101439.59;;;34.39;9.28
50105;BME280;47690;39.202;-77.198;2023-04-08T05:47:24;101451.44;;;34.36;9.16
50105;BME280;47690;39.202;-77.198;2023-04-08T05:49:57;101446.72;;;34.48;9.50
50105;BME280;47690;39.202;-77.198;2023-04-08T05:52:30;101445.22;;;34.17;9.46
50105;BME280;47690;39.202;-77.198;2023-04-08T05:55:05;101444.59;;;34.05;9.74
50105;BME280;47690;39.202;-77.198;2023-04-08T05:57:36;101443.44;;;34.08;9.59
50105;BME280;47690;39.202;-77.198;2023-04-08T06:00:09;101461.22;;;34.45;9.46
50105;BME280;47690;39.202;-77.198;2023-04-08T06:02:42;101472.34;;;35.32;8.59
50105;BME280;47690;39.202;-77.198;2023-04-08T06:05:13;101467.09;;;34.49;9.09
50105;BME280;47690;39.202;-77.198;2023-04-08T06:07:45;101466.22;;;34.40;9.03
50105;BME280;47690;39.202;-77.198;2023-04-08T06:10:14;101462.25;;;34.16;8.92
50105;BME280;47690;39.202;-77.198;2023-04-08T06:12:46;101465.97;;;34.05;8.88
50105;BME280;47690;39.202;-77.198;2023-04-08T06:15:18;101468.25;;;34.00;8.94
50105;BME280;47690;39.202;-77.198;2023-04-08T06:17:50;101474.00;;;34.05;8.90
50105;BME280;47690;39.202;-77.198;2023-04-08T06:20:20;101458.25;;;34.02;8.80
50105;BME280;47690;39.202;-77.198;2023-04-08T06:22:50;101456.69;;;34.00;8.90
50105;BME280;47690;39.202;-77.198;2023-04-08T06:25:21;101463.03;;;33.99;9.06
50105;BME280;47690;39.202;-77.198;2023-04-08T06:27:50;101453.63;;;33.95;8.77
50105;BME280;47690;39.202;-77.198;2023-04-08T06:30:22;101455.28;;;33.96;9.00
50105;BME280;47690;39.202;-77.198;2023-04-08T06:33:15;101452.97;;;34.39;8.39
50105;BME280;47690;39.202;-77.198;2023-04-08T06:35:46;101453.34;;;35.17;7.95
50105;BME280;47690;39.202;-77.198;2023-04-08T06:38:18;101455.72;;;34.29;8.31
50105;BME280;47690;39.202;-77.198;2023-04-08T06:40:49;101449.38;;;34.30;8.13
50105;BME280;47690;39.202;-77.198;2023-04-08T06:43:21;101444.94;;;34.39;8.09
50105;BME280;47690;39.202;-77.198;2023-04-08T06:45:52;101443.72;;;34.33;8.15
50105;BME280;47690;39.202;-77.198;2023-04-08T06:48:30;101445.06;;;34.65;7.87
50105;BME280;47690;39.202;-77.198;2023-04-08T06:51:01;101441.97;;;35.49;7.24
50105;BME280;47690;39.202;-77.198;2023-04-08T06:53:32;101439.47;;;35.74;7.02
50105;BME280;47690;39.202;-77.198;2023-04-08T06:56:02;101441.66;;;35.79;6.97
50105;BME280;47690;39.202;-77.198;2023-04-08T06:58:34;101444.00;;;35.21;7.26
50105;BME280;47690;39.202;-77.198;2023-04-08T07:01:06;101444.69;;;35.23;7.35
50105;BME280;47690;39.202;-77.198;2023-04-08T07:03:41;101448.94;;;35.07;7.15
50105;BME280;47690;39.202;-77.198;2023-04-08T07:06:10;101439.03;;;33.89;7.53
50105;BME280;47690;39.202;-77.198;2023-04-08T07:08:44;101447.81;;;34.09;7.52
50105;BME280;47690;39.202;-77.198;2023-04-08T07:11:14;101451.38;;;34.28;7.57
50105;BME280;47690;39.202;-77.198;2023-04-08T07:13:45;101457.91;;;34.62;7.38
50105;BME280;47690;39.202;-77.198;2023-04-08T07:16:17;101464.59;;;34.47;7.16
50105;BME280;47690;39.202;-77.198;2023-04-08T07:18:49;101460.72;;;34.60;7.34
50105;BME280;47690;39.202;-77.198;2023-04-08T07:21:20;101457.50;;;34.56;7.26
50105;BME280;47690;39.202;-77.198;2023-04-08T07:23:50;101452.28;;;34.37;7.34
50105;BME280;47690;39.202;-77.198;2023-04-08T07:26:20;101451.81;;;34.23;7.12
50105;BME280;47690;39.202;-77.198;2023-04-08T07:28:50;101453.94;;;34.19;7.22
50105;BME280;47690;39.202;-77.198;2023-04-08T07:31:21;101458.56;;;33.42;7.26
50105;BME280;47690;39.202;-77.198;2023-04-08T07:33:50;101460.47;;;33.02;7.94
50105;BME280;47690;39.202;-77.198;2023-04-08T07:36:22;101453.72;;;32.88;7.42
50105;BME280;47690;39.202;-77.198;2023-04-08T07:39:03;101453.03;;;32.76;7.18
50105;BME280;47690;39.202;-77.198;2023-04-08T07:41:40;101468.75;;;32.79;7.81
50105;BME280;47690;39.202;-77.198;2023-04-08T07:44:10;101473.81;;;32.72;7.89
50105;BME280;47690;39.202;-77.198;2023-04-08T07:46:45;101484.06;;;33.16;7.27
50105;BME280;47690;39.202;-77.198;2023-04-08T07:49:21;101480.81;;;33.32;7.26
50105;BME280;47690;39.202;-77.198;2023-04-08T07:51:50;101492.63;;;32.90;7.36
50105;BME280;47690;39.202;-77.198;2023-04-08T07:54:23;101492.06;;;32.77;7.79
50105;BME280;47690;39.202;-77.198;2023-04-08T07:57:02;101500.19;;;32.75;7.88
50105;BME280;47690;39.202;-77.198;2023-04-08T07:59:35;101497.66;;;32.74;8.05
50105;BME280;47690;39.202;-77.198;2023-04-08T08:02:06;101505.41;;;32.77;8.05
50105;BME280;47690;39.202;-77.198;2023-04-08T08:04:40;101518.03;;;32.75;7.80
50105;BME280;47690;39.202;-77.198;2023-04-08T08:07:13;101521.53;;;32.75;7.36
50105;BME280;47690;39.202;-77.198;2023-04-08T08:09:43;101512.25;;;32.69;7.39
50105;BME280;47690;39.202;-77.198;2023-04-08T08:12:13;101518.44;;;32.60;7.43
50105;BME280;47690;39.202;-77.198;2023-04-08T08:14:43;101518.28;;;32.52;7.91
50105;BME280;47690;39.202;-77.198;2023-04-08T08:17:15;101510.25;;;32.42;7.66
50105;BME280;47690;39.202;-77.198;2023-04-08T08:19:45;101503.47;;;33.08;7.08
50105;BME280;47690;39.202;-77.198;2023-04-08T08:22:17;101512.56;;;33.55;7.27
50105;BME280;47690;39.202;-77.198;2023-04-08T08:24:47;101518.00;;;33.44;7.25
50105;BME280;47690;39.202;-77.198;2023-04-08T08:27:18;101517.06;;;33.45;7.39
50105;BME280;47690;39.202;-77.198;2023-04-08T08:29:50;101515.75;;;33.69;6.69
50105;BME280;47690;39.202;-77.198;2023-04-08T08:32:22;101511.56;;;33.36;7.42
50105;BME280;47690;39.202;-77.198;2023-04-08T08:34:58;101520.84;;;33.32;7.23
50105;BME280;47690;39.202;-77.198;2023-04-08T08:37:32;101522.34;;;33.74;6.72
50105;BME280;47690;39.202;-77.198;2023-04-08T08:40:03;101528.00;;;33.32;7.24
50105;BME280;47690;39.202;-77.198;2023-04-08T08:42:35;101532.09;;;33.16;7.32
50105;BME280;47690;39.202;-77.198;2023-04-08T08:45:09;101541.38;;;33.02;7.18
50105;BME280;47690;39.202;-77.198;2023-04-08T08:47:41;101531.41;;;33.04;7.13
50105;BME280;47690;39.202;-77.198;2023-04-08T08:50:11;101548.66;;;32.90;7.13
50105;BME280;47690;39.202;-77.198;2023-04-08T08:52:51;101554.31;;;32.97;7.33
50105;BME280;47690;39.202;-77.198;2023-04-08T08:55:22;101551.00;;;32.74;7.17
50105;BME280;47690;39.202;-77.198;2023-04-08T08:58:13;101560.56;;;32.86;7.56
50105;BME280;47690;39.202;-77.198;2023-04-08T09:00:42;101563.94;;;32.88;7.12
50105;BME280;47690;39.202;-77.198;2023-04-08T09:03:22;101561.47;;;33.56;6.81
50105;BME280;47690;39.202;-77.198;2023-04-08T09:06:01;101562.75;;;33.51;6.97
50105;BME280;47690;39.202;-77.198;2023-04-08T09:08:34;101566.97;;;33.54;6.69
50105;BME280;47690;39.202;-77.198;2023-04-08T09:11:20;101566.13;;;33.24;7.19
50105;BME280;47690;39.202;-77.198;2023-04-08T09:13:52;101565.13;;;33.15;7.20
50105;BME280;47690;39.202;-77.198;2023-04-08T09:16:22;101569.03;;;32.91;7.22
50105;BME280;47690;39.202;-77.198;2023-04-08T09:19:10;101567.66;;;32.97;7.55
50105;BME280;47690;39.202;-77.198;2023-04-08T09:21:41;101566.25;;;33.13;7.71
50105;BME280;47690;39.202;-77.198;2023-04-08T09:24:27;101562.13;;;32.89;7.65
50105;BME280;47690;39.202;-77.198;2023-04-08T09:27:01;101570.47;;;32.54;7.32
50105;BME280;47690;39.202;-77.198;2023-04-08T09:29:34;101589.91;;;32.35;7.76
50105;BME280;47690;39.202;-77.198;2023-04-08T09:32:09;101580.19;;;32.55;7.25
50105;BME280;47690;39.202;-77.198;2023-04-08T09:34:42;101582.72;;;32.67;7.46
50105;BME280;47690;39.202;-77.198;2023-04-08T09:37:12;101587.28;;;32.45;7.16
50105;BME280;47690;39.202;-77.198;2023-04-08T09:39:43;101582.50;;;32.39;7.27
50105;BME280;47690;39.202;-77.198;2023-04-08T09:42:17;101578.66;;;32.32;7.56
50105;BME280;47690;39.202;-77.198;2023-04-08T09:44:50;101593.94;;;32.29;7.47
50105;BME280;47690;39.202;-77.198;2023-04-08T09:47:24;101602.66;;;32.32;7.22
50105;BME280;47690;39.202;-77.198;2023-04-08T09:50:05;101611.78;;;32.70;7.65
50105;BME280;47690;39.202;-77.198;2023-04-08T09:52:49;101600.44;;;32.78;7.45
50105;BME280;47690;39.202;-77.198;2023-04-08T09:55:30;101599.25;;;33.02;7.30
50105;BME280;47690;39.202;-77.198;2023-04-08T09:58:19;101595.97;;;32.78;7.17
50105;BME280;47690;39.202;-77.198;2023-04-08T10:00:54;101609.59;;;32.85;7.37
50105;BME280;47690;39.202;-77.198;2023-04-08T10:03:44;101608.38;;;32.27;7.63
50105;BME280;47690;39.202;-77.198;2023-04-08T10:06:20;101608.84;;;32.11;7.36
50105;BME280;47690;39.202;-77.198;2023-04-08T10:08:51;101620.59;;;31.98;7.45
50105;BME280;47690;39.202;-77.198;2023-04-08T10:11:21;101616.75;;;31.91;7.49
50105;BME280;47690;39.202;-77.198;2023-04-08T10:13:50;101616.91;;;32.42;7.93
50105;BME280;47690;39.202;-77.198;2023-04-08T10:16:25;101620.59;;;32.61;7.46
50105;BME280;47690;39.202;-77.198;2023-04-08T10:19:38;101619.03;;;32.99;6.94
50105;BME280;47690;39.202;-77.198;2023-04-08T10:27:46;101625.19;;;31.96;7.88
50105;BME280;47690;39.202;-77.198;2023-04-08T10:33:16;101630.06;;;31.91;7.78
50105;BME280;47690;39.202;-77.198;2023-04-08T10:35:48;101631.53;;;32.48;7.00
50105;BME280;47690;39.202;-77.198;2023-04-08T10:38:20;101637.09;;;31.81;7.75
50105;BME280;47690;39.202;-77.198;2023-04-08T10:40:50;101646.56;;;31.52;7.82
50105;BME280;47690;39.202;-77.198;2023-04-08T10:43:21;101648.53;;;31.71;7.81
50105;BME280;47690;39.202;-77.198;2023-04-08T10:45:53;101655.19;;;31.44;7.85
50105;BME280;47690;39.202;-77.198;2023-04-08T10:48:28;101654.75;;;31.39;7.75
50105;BME280;47690;39.202;-77.198;2023-04-08T10:51:13;101667.69;;;32.40;7.68
50105;BME280;47690;39.202;-77.198;2023-04-08T10:53:43;101672.78;;;31.68;7.87
50105;BME280;47690;39.202;-77.198;2023-04-08T10:56:17;101670.47;;;32.70;7.55
50105;BME280;47690;39.202;-77.198;2023-04-08T10:58:54;101670.81;;;32.87;7.13
50105;BME280;47690;39.202;-77.198;2023-04-08T11:01:38;101672.00;;;32.94;7.53
50105;BME280;47690;39.202;-77.198;2023-04-08T11:04:17;101679.88;;;33.05;6.98
50105;BME280;47690;39.202;-77.198;2023-04-08T11:06:51;101688.69;;;31.91;7.24
50105;BME280;47690;39.202;-77.198;2023-04-08T11:09:23;101694.66;;;31.39;7.69
50105;BME280;47690;39.202;-77.198;2023-04-08T11:11:59;101695.88;;;31.35;7.73
50105;BME280;47690;39.202;-77.198;2023-04-08T11:14:32;101694.81;;;31.26;7.85
50105;BME280;47690;39.202;-77.198;2023-04-08T11:17:03;101697.69;;;31.23;7.83
50105;BME280;47690;39.202;-77.198;2023-04-08T11:19:34;101700.34;;;31.23;8.12
50105;BME280;47690;39.202;-77.198;2023-04-08T11:22:11;101708.47;;;31.33;8.27
50105;BME280;47690;39.202;-77.198;2023-04-08T11:24:43;101705.81;;;31.33;7.85
50105;BME280;47690;39.202;-77.198;2023-04-08T11:27:15;101714.41;;;31.37;8.08
50105;BME280;47690;39.202;-77.198;2023-04-08T11:29:47;101717.06;;;31.37;7.89
50105;BME280;47690;39.202;-77.198;2023-04-08T11:32:21;101719.84;;;31.35;8.10
50105;BME280;47690;39.202;-77.198;2023-04-08T11:34:53;101731.56;;;31.32;8.05
50105;BME280;47690;39.202;-77.198;2023-04-08T11:37:35;101736.66;;;31.36;8.22
50105;BME280;47690;39.202;-77.198;2023-04-08T11:40:09;101741.84;;;31.48;8.06
50105;BME280;47690;39.202;-77.198;2023-04-08T11:42:41;101756.72;;;31.40;7.93
50105;BME280;47690;39.202;-77.198;2023-04-08T11:45:18;101767.25;;;31.41;8.21
50105;BME280;47690;39.202;-77.198;2023-04-08T11:47:50;101763.88;;;31.39;7.98
50105;BME280;47690;39.202;-77.198;2023-04-08T11:50:23;101770.91;;;31.40;7.98
50105;BME280;47690;39.202;-77.198;2023-04-08T11:52:58;101783.31;;;32.07;7.91
50105;BME280;47690;39.202;-77.198;2023-04-08T11:55:38;101791.31;;;32.92;7.57
50105;BME280;47690;39.202;-77.198;2023-04-08T11:58:10;101777.16;;;33.93;6.57
50105;BME280;47690;39.202;-77.198;2023-04-08T12:00:45;101779.00;;;33.22;7.14
50105;BME280;47690;39.202;-77.198;2023-04-08T12:03:17;101775.22;;;32.08;7.50
50105;BME280;47690;39.202;-77.198;2023-04-08T12:05:47;101788.78;;;31.50;8.12
50105;BME280;47690;39.202;-77.198;2023-04-08T12:08:18;101792.44;;;31.26;8.15
50105;BME280;47690;39.202;-77.198;2023-04-08T12:10:49;101795.91;;;31.03;8.36
50105;BME280;47690;39.202;-77.198;2023-04-08T12:13:21;101805.56;;;32.17;7.60
50105;BME280;47690;39.202;-77.198;2023-04-08T12:15:53;101795.56;;;31.19;8.35
50105;BME280;47690;39.202;-77.198;2023-04-08T12:18:23;101806.94;;;30.99;8.45
50105;BME280;47690;39.202;-77.198;2023-04-08T12:20:53;101804.44;;;31.98;7.38
50105;BME280;47690;39.202;-77.198;2023-04-08T12:23:26;101806.16;;;31.77;7.60
50105;BME280;47690;39.202;-77.198;2023-04-08T12:26:02;101814.69;;;32.36;7.66
50105;BME280;47690;39.202;-77.198;2023-04-08T12:28:32;101808.84;;;31.77;7.59
50105;BME280;47690;39.202;-77.198;2023-04-08T12:31:05;101807.50;;;32.15;7.35
50105;BME280;47690;39.202;-77.198;2023-04-08T12:33:37;101811.63;;;31.75;8.01
50105;BME280;47690;39.202;-77.198;2023-04-08T12:36:07;101818.31;;;31.58;8.09
50105;BME280;47690;39.202;-77.198;2023-04-08T12:38:41;101820.13;;;32.67;7.46
50105;BME280;47690;39.202;-77.198;2023-04-08T12:41:13;101830.03;;;31.55;7.80
50105;BME280;47690;39.202;-77.198;2023-04-08T12:43:45;101828.84;;;32.69;7.76
50105;BME280;47690;39.202;-77.198;2023-04-08T12:46:17;101825.19;;;32.91;7.13
50105;BME280;47690;39.202;-77.198;2023-04-08T12:48:49;101825.56;;;31.67;7.55
50105;BME280;47690;39.202;-77.198;2023-04-08T12:51:35;101834.38;;;31.79;8.12
50105;BME280;47690;39.202;-77.198;2023-04-08T12:54:09;101830.66;;;31.47;8.33
50105;BME280;47690;39.202;-77.198;2023-04-08T12:56:38;101820.38;;;31.54;7.96
50105;BME280;47690;39.202;-77.198;2023-04-08T12:59:09;101819.28;;;31.57;8.02
50105;BME280;47690;39.202;-77.198;2023-04-08T13:01:41;101826.66;;;31.53;7.67
50105;BME280;47690;39.202;-77.198;2023-04-08T13:04:13;101825.09;;;31.62;8.04
50105;BME280;47690;39.202;-77.198;2023-04-08T13:06:44;101837.47;;;32.40;7.52
50105;BME280;47690;39.202;-77.198;2023-04-08T13:09:16;101830.19;;;33.06;7.09
50105;BME280;47690;39.202;-77.198;2023-04-08T13:11:48;101822.44;;;33.03;7.45
50105;BME280;47690;39.202;-77.198;2023-04-08T13:14:18;101802.31;;;33.30;6.96
50105;BME280;47690;39.202;-77.198;2023-04-08T13:16:49;101824.25;;;33.33;7.04
50105;BME280;47690;39.202;-77.198;2023-04-08T13:19:20;101827.66;;;33.04;7.52
50105;BME280;47690;39.202;-77.198;2023-04-08T13:21:50;101829.50;;;33.04;7.21
50105;BME280;47690;39.202;-77.198;2023-04-08T13:24:20;101827.59;;;32.94;7.68
50105;BME280;47690;39.202;-77.198;2023-04-08T13:26:54;101830.44;;;33.03;7.49
50105;BME280;47690;39.202;-77.198;2023-04-08T13:29:32;101836.94;;;33.10;7.51